Terminal Aerodrome Forecast
Issued by NWS San Angelo, TX

Home | Current Version | Previous Version | Text Only | Print | Product List | Glossary On
Versions: 1 2 3 4 5 6 7 8 9 10 11 12 13
000
FTUS44 KSJT 240532
TAFABI
TAF
KABI 240532Z 2406/2506 19010KT P6SM FEW250
     FM241600 25016G24KT P6SM SCT250
     FM250000 26008KT P6SM FEW250=

USA.gov is the U.S. government's official web portal to all federal, state and local government web resources and services.